createdAt,value
2017-04-30T00:00:06.020Z,0
2017-04-30T00:01:05.730Z,0
2017-04-30T00:02:06.072Z,0
2017-04-30T00:03:06.354Z,0
2017-04-30T00:04:06.108Z,0
2017-04-30T00:05:06.145Z,0
2017-04-30T00:06:06.177Z,0
2017-04-30T00:07:06.207Z,0
2017-04-30T00:08:06.799Z,0
2017-04-30T00:09:06.567Z,0
2017-04-30T00:10:06.286Z,0
2017-04-30T00:11:06.309Z,0
2017-04-30T00:12:06.662Z,0
2017-04-30T00:13:06.927Z,0
2017-04-30T00:14:06.708Z,0
2017-04-30T00:15:06.729Z,0
2017-04-30T00:16:06.759Z,0
2017-04-30T00:17:06.171Z,0
2017-04-30T00:18:06.438Z,0
2017-04-30T00:19:06.524Z,0
2017-04-30T00:20:06.561Z,0
2017-04-30T00:21:06.274Z,0
2017-04-30T00:22:06.918Z,0
2017-04-30T00:23:06.887Z,0
2017-04-30T00:24:06.365Z,0
2017-04-30T00:25:07.009Z,0
2017-04-30T00:26:07.034Z,0
2017-04-30T00:27:06.755Z,0
2017-04-30T00:28:07.036Z,0
2017-04-30T00:29:06.797Z,0
2017-04-30T00:30:06.861Z,0
2017-04-30T00:31:06.858Z,0
2017-04-30T00:32:06.878Z,0
2017-04-30T00:33:07.164Z,0
2017-04-30T00:34:06.963Z,0
2017-04-30T00:35:07.273Z,0
2017-04-30T00:36:07.308Z,0
2017-04-30T00:37:07.014Z,0
2017-04-30T00:38:07.609Z,0
2017-04-30T00:39:07.388Z,0
2017-04-30T00:40:07.403Z,0
2017-04-30T00:41:07.129Z,0
2017-04-30T00:42:06.843Z,0
2017-04-30T00:43:07.783Z,0
2017-04-30T00:44:07.519Z,0
2017-04-30T00:45:07.536Z,0
2017-04-30T00:46:06.638Z,0
2017-04-30T00:47:07.597Z,0
2017-04-30T00:48:07.262Z,0
2017-04-30T00:49:07.359Z,0
2017-04-30T00:50:07.676Z,0
2017-04-30T00:51:07.401Z,0
2017-04-30T00:52:07.423Z,0
2017-04-30T00:53:07.388Z,0
2017-04-30T00:54:07.788Z,0
2017-04-30T00:55:07.192Z,0
2017-04-30T00:56:07.221Z,0
2017-04-30T00:57:07.561Z,0
2017-04-30T00:58:08.147Z,0
2017-04-30T00:59:07.924Z,0
2017-04-30T01:00:07.955Z,0
2017-04-30T01:01:07.969Z,0
2017-04-30T01:02:07.698Z,0
2017-04-30T01:03:07.659Z,0
2017-04-30T01:04:08.054Z,0
2017-04-30T01:05:07.771Z,0
2017-04-30T01:06:08.110Z,0
2017-04-30T01:07:08.149Z,0
2017-04-30T01:08:07.782Z,0
2017-04-30T01:09:07.566Z,0
2017-04-30T01:10:08.208Z,0
2017-04-30T01:11:08.240Z,0
2017-04-30T01:12:07.964Z,0
2017-04-30T01:13:08.242Z,0
2017-04-30T01:14:08.020Z,0
2017-04-30T01:15:08.054Z,0
2017-04-30T01:16:08.379Z,0
2017-04-30T01:17:07.782Z,0
2017-04-30T01:18:08.681Z,0
2017-04-30T01:19:07.840Z,0
2017-04-30T01:20:08.505Z,0
2017-04-30T01:21:08.193Z,0
2017-04-30T01:22:08.232Z,0
2017-04-30T01:23:08.831Z,0
2017-04-30T01:24:08.280Z,0
2017-04-30T01:25:08.317Z,0
2017-04-30T01:26:08.654Z,0
2017-04-30T01:27:08.678Z,0
2017-04-30T01:28:08.962Z,0
2017-04-30T01:29:08.434Z,0
2017-04-30T01:30:08.135Z,0
2017-04-30T01:31:08.472Z,0
2017-04-30T01:32:08.494Z,0
2017-04-30T01:33:08.787Z,0
2017-04-30T01:34:08.875Z,0
2017-04-30T01:35:08.582Z,0
2017-04-30T01:36:08.614Z,0
2017-04-30T01:37:08.637Z,0
2017-04-30T01:38:08.917Z,0
2017-04-30T01:39:08.690Z,0
2017-04-30T01:40:08.711Z,0
2017-04-30T01:41:09.082Z,0
2017-04-30T01:42:09.080Z,0
2017-04-30T01:43:08.745Z,0
2017-04-30T01:44:09.143Z,0
2017-04-30T01:45:08.254Z,0
2017-04-30T01:46:08.933Z,0
2017-04-30T01:47:08.893Z,0
2017-04-30T01:48:09.197Z,0
2017-04-30T01:49:09.265Z,0
2017-04-30T01:50:09.295Z,0
2017-04-30T01:51:09.008Z,0
2017-04-30T01:52:09.045Z,0
2017-04-30T01:53:09.622Z,0
2017-04-30T01:54:08.778Z,0
2017-04-30T01:55:08.807Z,0
2017-04-30T01:56:09.143Z,0
2017-04-30T01:57:09.488Z,0
2017-04-30T01:58:09.790Z,0
2017-04-30T01:59:09.231Z,0
2017-04-30T02:00:09.568Z,0
2017-04-30T02:01:09.280Z,0
2017-04-30T02:02:09.304Z,0
2017-04-30T02:03:11.386Z,0
2017-04-30T02:04:08.746Z,0
2017-04-30T02:05:09.694Z,0
2017-04-30T02:06:09.727Z,0
2017-04-30T02:07:09.441Z,0
2017-04-30T02:08:08.840Z,0
2017-04-30T02:09:10.062Z,0
2017-04-30T02:10:09.223Z,0
2017-04-30T02:11:09.552Z,0
2017-04-30T02:12:09.266Z,0
2017-04-30T02:13:09.914Z,0
2017-04-30T02:14:09.587Z,0
2017-04-30T02:15:09.663Z,0
2017-04-30T02:16:09.682Z,0
2017-04-30T02:17:09.708Z,0
2017-04-30T02:18:09.726Z,0
2017-04-30T02:19:09.705Z,0
2017-04-30T02:20:09.218Z,0
2017-04-30T02:21:10.127Z,0
2017-04-30T02:22:09.533Z,0
2017-04-30T02:23:09.875Z,0
2017-04-30T02:24:10.158Z,0
2017-04-30T02:25:09.931Z,0
2017-04-30T02:26:09.961Z,0
2017-04-30T02:27:10.300Z,0
2017-04-30T02:28:10.017Z,0
2017-04-30T02:29:10.614Z,0
2017-04-30T02:30:09.751Z,0
2017-04-30T02:31:10.403Z,0
2017-04-30T02:32:10.421Z,0
2017-04-30T02:33:10.444Z,0
2017-04-30T02:34:10.418Z,0
2017-04-30T02:35:10.507Z,0
2017-04-30T02:36:10.536Z,0
2017-04-30T02:37:10.248Z,0
2017-04-30T02:38:10.276Z,0
2017-04-30T02:39:09.615Z,0
2017-04-30T02:40:09.699Z,0
2017-04-30T02:41:10.043Z,0
2017-04-30T02:42:10.697Z,0
2017-04-30T02:43:10.100Z,0
2017-04-30T02:44:10.685Z,0
2017-04-30T02:45:10.149Z,0
2017-04-30T02:46:10.176Z,0
2017-04-30T02:47:09.896Z,0
2017-04-30T02:48:10.849Z,0
2017-04-30T02:49:10.822Z,0
2017-04-30T02:50:10.598Z,0
2017-04-30T02:51:10.314Z,0
2017-04-30T02:52:10.332Z,0
2017-04-30T02:53:11.001Z,0
2017-04-30T02:54:25.855Z,0
2017-04-30T02:55:10.409Z,0
2017-04-30T02:56:10.446Z,0
2017-04-30T02:57:11.099Z,0
2017-04-30T02:58:11.125Z,0
2017-04-30T02:59:11.154Z,0
2017-04-30T03:00:10.806Z,0
2017-04-30T03:01:10.899Z,0
2017-04-30T03:02:10.598Z,0
2017-04-30T03:03:10.952Z,0
2017-04-30T03:04:10.978Z,0
2017-04-30T03:05:10.939Z,0
2017-04-30T03:06:11.017Z,0
2017-04-30T03:07:11.360Z,0
2017-04-30T03:08:11.094Z,0
2017-04-30T03:09:11.114Z,0
2017-04-30T03:10:10.752Z,0
2017-04-30T03:11:10.844Z,0
2017-04-30T03:12:10.566Z,0
2017-04-30T03:13:11.524Z,0
2017-04-30T03:14:11.552Z,0
2017-04-30T03:15:11.842Z,0
2017-04-30T03:16:11.289Z,0
2017-04-30T03:17:11.317Z,0
2017-04-30T03:18:11.044Z,0
2017-04-30T03:19:11.383Z,0
2017-04-30T03:20:11.968Z,0
2017-04-30T03:21:11.738Z,0
2017-04-30T03:22:11.775Z,0
2017-04-30T03:23:11.800Z,0
2017-04-30T03:24:11.508Z,0
2017-04-30T03:25:11.479Z,0
2017-04-30T03:26:11.866Z,0
2017-04-30T03:27:11.898Z,0
2017-04-30T03:28:11.933Z,0
2017-04-30T03:29:10.712Z,0
2017-04-30T03:30:12.233Z,0
2017-04-30T03:31:12.006Z,0
2017-04-30T03:32:12.042Z,0
2017-04-30T03:33:12.063Z,0
2017-04-30T03:34:11.777Z,0
2017-04-30T03:35:12.381Z,0
2017-04-30T03:36:11.522Z,0
2017-04-30T03:37:11.875Z,0
2017-04-30T03:38:11.888Z,0
2017-04-30T03:39:12.229Z,0
2017-04-30T03:40:11.875Z,0
2017-04-30T03:41:11.653Z,0
2017-04-30T03:42:11.679Z,0
2017-04-30T03:43:12.020Z,0
2017-04-30T03:44:12.037Z,0
2017-04-30T03:45:11.998Z,0
2017-04-30T03:46:11.789Z,0
2017-04-30T03:47:12.114Z,0
2017-04-30T03:48:12.471Z,0
2017-04-30T03:49:12.493Z,0
2017-04-30T03:50:12.469Z,0
2017-04-30T03:51:12.561Z,0
2017-04-30T03:52:12.268Z,0
2017-04-30T03:53:12.594Z,0
2017-04-30T03:54:12.320Z,0
2017-04-30T03:55:12.592Z,0
2017-04-30T03:56:12.374Z,0
2017-04-30T03:57:12.698Z,0
2017-04-30T03:58:12.423Z,0
2017-04-30T03:59:12.463Z,0
2017-04-30T04:00:12.720Z,0
2017-04-30T04:01:12.820Z,0
2017-04-30T04:02:12.842Z,0
2017-04-30T04:03:12.552Z,0
2017-04-30T04:04:12.586Z,0
2017-04-30T04:05:12.552Z,0
2017-04-30T04:06:12.639Z,0
2017-04-30T04:07:12.973Z,0
2017-04-30T04:08:12.692Z,0
2017-04-30T04:09:12.712Z,0
2017-04-30T04:10:13.312Z,0
2017-04-30T04:11:12.776Z,0
2017-04-30T04:12:13.105Z,0
2017-04-30T04:13:12.515Z,0
2017-04-30T04:14:12.548Z,0
2017-04-30T04:15:12.816Z,0
2017-04-30T04:16:12.912Z,0
2017-04-30T04:17:12.618Z,0
2017-04-30T04:18:12.960Z,0
2017-04-30T04:19:12.675Z,0
2017-04-30T04:20:13.573Z,0
2017-04-30T04:21:13.038Z,0
2017-04-30T04:22:13.066Z,0
2017-04-30T04:23:13.403Z,0
2017-04-30T04:24:12.492Z,0
2017-04-30T04:25:13.085Z,0
2017-04-30T04:26:12.865Z,0
2017-04-30T04:27:12.883Z,0
2017-04-30T04:28:13.231Z,0
2017-04-30T04:29:12.942Z,0
2017-04-30T04:30:13.211Z,0
2017-04-30T04:31:13.621Z,0
2017-04-30T04:32:13.645Z,0
2017-04-30T04:33:13.671Z,0
2017-04-30T04:34:13.387Z,0
2017-04-30T04:35:13.348Z,0
2017-04-30T04:36:13.436Z,0
2017-04-30T04:37:13.775Z,0
2017-04-30T04:38:13.486Z,0
2017-04-30T04:39:13.515Z,0
2017-04-30T04:40:13.480Z,0
2017-04-30T04:41:13.568Z,0
2017-04-30T04:42:13.591Z,0
2017-04-30T04:43:13.627Z,0
2017-04-30T04:44:13.952Z,0
2017-04-30T04:45:13.932Z,0
2017-04-30T04:46:13.701Z,0
2017-04-30T04:47:13.732Z,0
2017-04-30T04:48:14.078Z,0
2017-04-30T04:49:13.527Z,0
2017-04-30T04:50:14.056Z,0
2017-04-30T04:51:13.526Z,0
2017-04-30T04:52:14.173Z,0
2017-04-30T04:53:14.210Z,0
2017-04-30T04:54:13.915Z,0
2017-04-30T04:55:13.884Z,0
2017-04-30T04:56:14.287Z,0
2017-04-30T04:57:13.365Z,0
2017-04-30T04:58:14.342Z,0
2017-04-30T04:59:14.369Z,0
2017-04-30T05:00:14.324Z,0
2017-04-30T05:01:14.410Z,5
2017-04-30T05:02:14.130Z,5
2017-04-30T05:03:14.469Z,5
2017-04-30T05:04:14.499Z,5
2017-04-30T05:05:14.460Z,5
2017-04-30T05:06:14.545Z,5
2017-04-30T05:07:14.574Z,5
2017-04-30T05:08:13.666Z,5
2017-04-30T05:09:14.640Z,5
2017-04-30T05:10:14.276Z,5
2017-04-30T05:11:14.673Z,5
2017-04-30T05:12:14.721Z,5
2017-04-30T05:13:14.422Z,5
2017-04-30T05:14:14.447Z,5
2017-04-30T05:15:14.416Z,5
2017-04-30T05:16:14.200Z,5
2017-04-30T05:17:14.845Z,5
2017-04-30T05:18:14.872Z,5
2017-04-30T05:19:14.585Z,5
2017-04-30T05:20:15.183Z,5
2017-04-30T05:21:14.944Z,5
2017-04-30T05:22:14.970Z,5
2017-04-30T05:23:15.013Z,5
2017-04-30T05:24:15.030Z,5
2017-04-30T05:25:15.303Z,5
2017-04-30T05:26:14.771Z,5
2017-04-30T05:27:14.799Z,5
2017-04-30T05:28:14.821Z,5
2017-04-30T05:29:14.855Z,5
2017-04-30T05:30:15.127Z,5
2017-04-30T05:31:14.908Z,5
2017-04-30T05:32:14.614Z,5
2017-04-30T05:33:14.962Z,5
2017-04-30T05:34:14.991Z,5
2017-04-30T05:35:14.949Z,5
2017-04-30T05:36:15.360Z,5
2017-04-30T05:37:15.065Z,5
2017-04-30T05:38:14.782Z,5
2017-04-30T05:39:14.491Z,5
2017-04-30T05:40:15.095Z,5
2017-04-30T05:41:15.180Z,5
2017-04-30T05:42:15.193Z,5
2017-04-30T05:43:15.538Z,5
2017-04-30T05:44:14.939Z,5
2017-04-30T05:45:15.847Z,5
2017-04-30T05:46:15.625Z,5
2017-04-30T05:47:15.324Z,5
2017-04-30T05:48:15.676Z,5
2017-04-30T05:49:15.703Z,5
2017-04-30T05:50:15.669Z,5
2017-04-30T05:51:15.135Z,5
2017-04-30T05:52:15.460Z,5
2017-04-30T05:53:15.499Z,5
2017-04-30T05:54:15.523Z,5
2017-04-30T05:55:15.246Z,5
2017-04-30T05:56:15.221Z,10
2017-04-30T05:57:15.621Z,10
2017-04-30T05:58:15.938Z,10
2017-04-30T05:59:15.658Z,10
2017-04-30T06:00:15.687Z,10
2017-04-30T06:01:16.288Z,10
2017-04-30T06:02:15.749Z,10
2017-04-30T06:03:15.785Z,10
2017-04-30T06:04:16.127Z,10
2017-04-30T06:05:15.822Z,10
2017-04-30T06:06:16.408Z,10
2017-04-30T06:07:15.873Z,10
2017-04-30T06:08:15.279Z,10
2017-04-30T06:09:15.613Z,10
2017-04-30T06:10:16.264Z,10
2017-04-30T06:11:15.920Z,10
2017-04-30T06:12:16.012Z,10
2017-04-30T06:13:15.414Z,10
2017-04-30T06:14:16.383Z,10
2017-04-30T06:15:16.406Z,10
2017-04-30T06:16:16.371Z,10
2017-04-30T06:17:15.514Z,10
2017-04-30T06:18:16.485Z,10
2017-04-30T06:19:16.199Z,10
2017-04-30T06:20:16.227Z,10
2017-04-30T06:21:16.816Z,10
2017-04-30T06:22:16.285Z,10
2017-04-30T06:23:16.621Z,10
2017-04-30T06:24:16.014Z,10
2017-04-30T06:25:16.676Z,10
2017-04-30T06:26:16.955Z,10
2017-04-30T06:27:16.112Z,10
2017-04-30T06:28:16.469Z,10
2017-04-30T06:29:16.470Z,10
2017-04-30T06:30:16.802Z,10
2017-04-30T06:31:16.775Z,10
2017-04-30T06:32:16.565Z,10
2017-04-30T06:33:16.895Z,10
2017-04-30T06:34:16.295Z,10
2017-04-30T06:35:16.944Z,10
2017-04-30T06:36:17.228Z,10
2017-04-30T06:37:16.681Z,10
2017-04-30T06:38:17.025Z,10
2017-04-30T06:39:17.058Z,10
2017-04-30T06:40:17.070Z,10
2017-04-30T06:41:17.360Z,10
2017-04-30T06:42:16.824Z,10
2017-04-30T06:43:16.849Z,10
2017-04-30T06:44:16.566Z,10
2017-04-30T06:45:16.594Z,10
2017-04-30T06:46:17.183Z,15
2017-04-30T06:47:17.269Z,15
2017-04-30T06:48:17.294Z,15
2017-04-30T06:49:17.004Z,15
2017-04-30T06:50:17.034Z,15
2017-04-30T06:51:17.311Z,15
2017-04-30T06:52:16.791Z,10
2017-04-30T06:53:16.805Z,10
2017-04-30T06:54:16.843Z,10
2017-04-30T06:55:17.482Z,10
2017-04-30T06:56:17.451Z,10
2017-04-30T06:57:17.216Z,10
2017-04-30T06:58:17.263Z,10
2017-04-30T06:59:17.284Z,10
2017-04-30T07:00:17.310Z,10
2017-04-30T07:01:17.903Z,10
2017-04-30T07:02:17.680Z,10
2017-04-30T07:03:17.081Z,10
2017-04-30T07:04:17.414Z,10
2017-04-30T07:05:17.751Z,10
2017-04-30T07:06:18.040Z,10
2017-04-30T07:07:17.198Z,10
2017-04-30T07:08:17.595Z,10
2017-04-30T07:09:17.555Z,10
2017-04-30T07:10:17.258Z,10
2017-04-30T07:11:18.168Z,10
2017-04-30T07:12:17.635Z,10
2017-04-30T07:13:17.668Z,10
2017-04-30T07:14:17.382Z,10
2017-04-30T07:15:18.028Z,10
2017-04-30T07:16:18.299Z,10
2017-04-30T07:17:17.777Z,10
2017-04-30T07:18:18.119Z,10
2017-04-30T07:19:17.879Z,10
2017-04-30T07:20:18.171Z,10
2017-04-30T07:21:17.503Z,10
2017-04-30T07:22:18.228Z,10
2017-04-30T07:23:18.252Z,10
2017-04-30T07:24:18.266Z,10
2017-04-30T07:25:18.301Z,10
2017-04-30T07:26:18.574Z,10
2017-04-30T07:27:17.425Z,10
2017-04-30T07:28:18.076Z,10
2017-04-30T07:29:18.421Z,10
2017-04-30T07:30:18.445Z,10
2017-04-30T07:31:17.875Z,10
2017-04-30T07:32:18.740Z,10
2017-04-30T07:33:18.209Z,10
2017-04-30T07:34:18.234Z,10
2017-04-30T07:35:17.964Z,10
2017-04-30T07:36:18.287Z,10
2017-04-30T07:37:18.580Z,10
2017-04-30T07:38:18.041Z,10
2017-04-30T07:39:18.071Z,10
2017-04-30T07:40:18.429Z,10
2017-04-30T07:41:18.431Z,10
2017-04-30T07:42:19.031Z,10
2017-04-30T07:43:18.167Z,10
2017-04-30T07:44:18.501Z,15
2017-04-30T07:45:18.539Z,15
2017-04-30T07:46:18.876Z,15
2017-04-30T07:47:19.178Z,15
2017-04-30T07:48:18.624Z,15
2017-04-30T07:49:18.661Z,15
2017-04-30T07:50:18.679Z,15
2017-04-30T07:51:18.699Z,15
2017-04-30T07:52:18.985Z,15
2017-04-30T07:53:18.764Z,15
2017-04-30T07:54:18.793Z,15
2017-04-30T07:55:18.818Z,15
2017-04-30T07:56:19.155Z,15
2017-04-30T07:57:19.426Z,15
2017-04-30T07:58:19.209Z,15
2017-04-30T07:59:18.926Z,15
2017-04-30T08:00:19.263Z,15
2017-04-30T08:01:18.975Z,15
2017-04-30T08:02:19.258Z,15
2017-04-30T08:03:19.052Z,15
2017-04-30T08:04:19.091Z,15
2017-04-30T08:05:19.090Z,15
2017-04-30T08:06:18.800Z,15
2017-04-30T08:07:19.708Z,15
2017-04-30T08:08:19.172Z,15
2017-04-30T08:09:19.517Z,15
2017-04-30T08:10:19.227Z,15
2017-04-30T08:11:19.271Z,15
2017-04-30T08:12:19.539Z,15
2017-04-30T08:13:19.620Z,15
2017-04-30T08:14:19.346Z,15
2017-04-30T08:15:19.366Z,15
2017-04-30T08:16:19.419Z,15
2017-04-30T08:17:19.967Z,15
2017-04-30T08:18:19.142Z,15
2017-04-30T08:19:19.477Z,15
2017-04-30T08:20:19.501Z,15
2017-04-30T08:21:19.838Z,15
2017-04-30T08:22:19.809Z,15
2017-04-30T08:23:19.895Z,15
2017-04-30T08:24:19.616Z,15
2017-04-30T08:25:19.321Z,15
2017-04-30T08:26:19.974Z,15
2017-04-30T08:27:19.629Z,15
2017-04-30T08:28:19.724Z,15
2017-04-30T08:29:20.057Z,15
2017-04-30T08:30:19.462Z,15
2017-04-30T08:31:20.103Z,20
2017-04-30T08:32:20.427Z,20
2017-04-30T08:33:19.856Z,20
2017-04-30T08:34:19.261Z,20
2017-04-30T08:35:20.218Z,20
2017-04-30T08:36:19.955Z,20
2017-04-30T08:37:20.531Z,20
2017-04-30T08:38:19.984Z,20
2017-04-30T08:39:19.705Z,20
2017-04-30T08:40:19.745Z,20
2017-04-30T08:41:20.067Z,20
2017-04-30T08:42:20.352Z,20
2017-04-30T08:43:20.131Z,20
2017-04-30T08:44:20.470Z,20
2017-04-30T08:45:20.218Z,20
2017-04-30T08:46:20.518Z,20
2017-04-30T08:47:20.799Z,20
2017-04-30T08:48:20.591Z,20
2017-04-30T08:49:20.605Z,20
2017-04-30T08:50:20.326Z,20
2017-04-30T08:51:20.348Z,20
2017-04-30T08:52:20.974Z,20
2017-04-30T08:53:20.417Z,20
2017-04-30T08:54:20.445Z,20
2017-04-30T08:55:20.769Z,20
2017-04-30T08:56:20.495Z,20
2017-04-30T08:57:21.095Z,20
2017-04-30T08:58:20.904Z,20
2017-04-30T08:59:20.333Z,20
2017-04-30T09:00:20.285Z,20
2017-04-30T09:01:20.639Z,20
2017-04-30T09:02:20.924Z,20
2017-04-30T09:03:20.375Z,20
2017-04-30T09:04:20.696Z,20
2017-04-30T09:05:20.748Z,20
2017-04-30T09:06:20.748Z,20
2017-04-30T09:07:21.362Z,20
2017-04-30T09:08:20.836Z,20
2017-04-30T09:09:20.597Z,20
2017-04-30T09:10:21.198Z,20
2017-04-30T09:11:20.879Z,20
2017-04-30T09:12:21.186Z,20
2017-04-30T09:13:21.279Z,20
2017-04-30T09:14:21.301Z,20
2017-04-30T09:15:20.694Z,20
2017-04-30T09:16:20.725Z,20
2017-04-30T09:17:21.634Z,20
2017-04-30T09:18:21.098Z,20
2017-04-30T09:19:21.644Z,20
2017-04-30T09:20:21.136Z,20
2017-04-30T09:21:21.495Z,20
2017-04-30T09:22:21.775Z,20
2017-04-30T09:23:20.958Z,20
2017-04-30T09:24:21.574Z,20
2017-04-30T09:25:21.285Z,20
2017-04-30T09:26:21.628Z,20
2017-04-30T09:27:21.914Z,20
2017-04-30T09:28:21.692Z,20
2017-04-30T09:29:20.779Z,25
2017-04-30T09:30:21.109Z,25
2017-04-30T09:31:21.766Z,25
2017-04-30T09:32:21.730Z,25
2017-04-30T09:33:21.191Z,25
2017-04-30T09:34:21.548Z,25
2017-04-30T09:35:21.881Z,25
2017-04-30T09:36:21.590Z,25
2017-04-30T09:37:21.865Z,25
2017-04-30T09:38:21.964Z,25
2017-04-30T09:39:22.022Z,25
2017-04-30T09:40:22.008Z,20
2017-04-30T09:41:21.729Z,25
2017-04-30T09:42:22.321Z,25
2017-04-30T09:43:22.104Z,25
2017-04-30T09:44:21.818Z,25
2017-04-30T09:45:22.148Z,25
2017-04-30T09:46:21.556Z,25
2017-04-30T09:47:22.454Z,25
2017-04-30T09:48:21.937Z,25
2017-04-30T09:49:21.664Z,25
2017-04-30T09:50:21.672Z,25
2017-04-30T09:51:22.319Z,25
2017-04-30T09:52:21.725Z,25
2017-04-30T09:53:22.319Z,25
2017-04-30T09:54:22.093Z,25
2017-04-30T09:55:22.427Z,25
2017-04-30T09:56:22.452Z,25
2017-04-30T09:57:21.862Z,25
2017-04-30T09:58:22.770Z,25
2017-04-30T09:59:22.239Z,25
2017-04-30T10:00:22.606Z,25
2017-04-30T10:01:22.592Z,25
2017-04-30T10:02:22.310Z,25
2017-04-30T10:03:22.587Z,25
2017-04-30T10:04:22.054Z,25
2017-04-30T10:05:22.396Z,25
2017-04-30T10:06:21.791Z,25
2017-04-30T10:07:22.449Z,25
2017-04-30T10:08:23.087Z,25
2017-04-30T10:09:22.825Z,25
2017-04-30T10:10:22.849Z,25
2017-04-30T10:11:22.569Z,25
2017-04-30T10:12:22.585Z,25
2017-04-30T10:13:22.879Z,25
2017-04-30T10:14:22.963Z,25
2017-04-30T10:15:22.671Z,30
2017-04-30T10:16:22.697Z,30
2017-04-30T10:17:23.050Z,30
2017-04-30T10:18:23.017Z,30
2017-04-30T10:19:22.785Z,30
2017-04-30T10:20:23.118Z,30
2017-04-30T10:21:22.541Z,30
2017-04-30T10:22:22.873Z,30
2017-04-30T10:23:23.178Z,30
2017-04-30T10:24:23.242Z,30
2017-04-30T10:25:23.267Z,30
2017-04-30T10:26:23.292Z,30
2017-04-30T10:27:23.020Z,30
2017-04-30T10:28:22.978Z,35
2017-04-30T10:29:22.750Z,35
2017-04-30T10:30:22.784Z,35
2017-04-30T10:31:22.498Z,35
2017-04-30T10:32:23.157Z,35
2017-04-30T10:33:23.125Z,35
2017-04-30T10:34:23.214Z,35
2017-04-30T10:35:23.546Z,35
2017-04-30T10:36:23.260Z,35
2017-04-30T10:37:22.969Z,35
2017-04-30T10:38:23.576Z,35
2017-04-30T10:39:23.033Z,35
2017-04-30T10:40:23.065Z,35
2017-04-30T10:41:23.402Z,35
2017-04-30T10:42:23.112Z,35
2017-04-30T10:43:23.397Z,40
2017-04-30T10:44:23.492Z,40
2017-04-30T10:45:23.514Z,40
2017-04-30T10:46:23.855Z,40
2017-04-30T10:47:23.251Z,40
2017-04-30T10:48:24.177Z,40
2017-04-30T10:49:23.001Z,40
2017-04-30T10:50:23.643Z,40
2017-04-30T10:51:24.002Z,40
2017-04-30T10:52:23.395Z,40
2017-04-30T10:53:24.304Z,40
2017-04-30T10:54:23.766Z,40
2017-04-30T10:55:24.115Z,40
2017-04-30T10:56:24.131Z,40
2017-04-30T10:57:23.867Z,40
2017-04-30T10:58:23.816Z,40
2017-04-30T10:59:24.214Z,40
2017-04-30T11:00:24.243Z,40
2017-04-30T11:01:23.959Z,40
2017-04-30T11:02:23.990Z,40
2017-04-30T11:03:24.584Z,40
2017-04-30T11:04:24.353Z,45
2017-04-30T11:05:23.761Z,45
2017-04-30T11:06:24.410Z,45
2017-04-30T11:07:24.455Z,50
2017-04-30T11:08:24.724Z,60
2017-04-30T11:09:24.188Z,70
2017-04-30T11:10:24.220Z,70
2017-04-30T11:11:24.566Z,75
2017-04-30T11:12:24.583Z,80
2017-04-30T11:13:24.543Z,85
2017-04-30T11:14:24.648Z,90
2017-04-30T11:15:24.354Z,90
2017-04-30T11:16:24.694Z,95
2017-04-30T11:17:24.415Z,95
2017-04-30T11:18:25.008Z,100
2017-04-30T11:19:24.476Z,100
2017-04-30T11:20:24.813Z,100
2017-04-30T11:21:24.538Z,100
2017-04-30T11:22:24.559Z,100
2017-04-30T11:23:25.147Z,105
2017-04-30T11:24:23.989Z,105
2017-04-30T11:25:24.649Z,105
2017-04-30T11:26:24.982Z,105
2017-04-30T11:27:25.014Z,110
2017-04-30T11:28:24.996Z,115
2017-04-30T11:29:24.755Z,120
2017-04-30T11:30:24.472Z,130
2017-04-30T11:31:24.492Z,140
2017-04-30T11:32:25.155Z,165
2017-04-30T11:33:24.807Z,215
2017-04-30T11:34:25.204Z,235
2017-04-30T11:35:25.245Z,230
2017-04-30T11:36:25.272Z,230
2017-04-30T11:37:25.302Z,230
2017-04-30T11:38:25.613Z,250
2017-04-30T11:39:25.352Z,250
2017-04-30T11:40:25.380Z,265
2017-04-30T11:41:25.417Z,275
2017-04-30T11:42:25.130Z,275
2017-04-30T11:43:25.414Z,270
2017-04-30T11:44:25.503Z,260
2017-04-30T11:45:25.532Z,245
2017-04-30T11:46:25.561Z,255
2017-04-30T11:47:24.977Z,255
2017-04-30T11:48:25.875Z,250
2017-04-30T11:49:25.335Z,255
2017-04-30T11:50:25.056Z,270
2017-04-30T11:51:25.384Z,260
2017-04-30T11:52:25.733Z,250
2017-04-30T11:53:25.714Z,250
2017-04-30T11:54:25.494Z,250
2017-04-30T11:55:24.891Z,245
2017-04-30T11:56:25.860Z,275
2017-04-30T11:57:25.581Z,275
2017-04-30T11:58:25.874Z,270
2017-04-30T11:59:25.641Z,260
2017-04-30T12:00:25.984Z,265
2017-04-30T12:01:26.019Z,270
2017-04-30T12:02:26.045Z,270
2017-04-30T12:03:26.021Z,285
2017-04-30T12:04:26.111Z,300
2017-04-30T12:05:25.821Z,305
2017-04-30T12:06:26.177Z,295
2017-04-30T12:07:25.889Z,270
2017-04-30T12:08:26.172Z,260
2017-04-30T12:09:26.266Z,255
2017-04-30T12:10:25.980Z,295
2017-04-30T12:11:26.019Z,305
2017-04-30T12:12:26.357Z,270
2017-04-30T12:13:26.325Z,280
2017-04-30T12:14:26.434Z,270
2017-04-30T12:15:26.458Z,265
2017-04-30T12:16:26.487Z,260
2017-04-30T12:17:26.205Z,250
2017-04-30T12:18:26.174Z,265
2017-04-30T12:19:26.269Z,255
2017-04-30T12:20:26.621Z,255
2017-04-30T12:21:26.647Z,260
2017-04-30T12:22:26.674Z,265
2017-04-30T12:23:26.654Z,255
2017-04-30T12:24:26.438Z,235
2017-04-30T12:25:26.470Z,270
2017-04-30T12:26:26.811Z,290
2017-04-30T12:27:26.840Z,265
2017-04-30T12:28:27.140Z,285
2017-04-30T12:29:26.289Z,270
2017-04-30T12:30:26.632Z,270
2017-04-30T12:31:26.340Z,265
2017-04-30T12:32:26.700Z,200
2017-04-30T12:33:26.104Z,145
2017-04-30T12:34:26.709Z,275
2017-04-30T12:35:27.113Z,265
2017-04-30T12:36:26.511Z,200
2017-04-30T12:37:27.175Z,195
2017-04-30T12:38:27.197Z,265
2017-04-30T12:39:27.502Z,320
2017-04-30T12:40:27.277Z,320
2017-04-30T12:41:27.296Z,305
2017-04-30T12:42:27.025Z,265
2017-04-30T12:43:27.372Z,250
2017-04-30T12:44:27.345Z,280
2017-04-30T12:45:27.128Z,320
2017-04-30T12:46:27.156Z,305
2017-04-30T12:47:27.194Z,245
2017-04-30T12:48:27.232Z,240
2017-04-30T12:49:27.521Z,235
2017-04-30T12:50:27.287Z,245
2017-04-30T12:51:27.335Z,300
2017-04-30T12:52:27.667Z,370
2017-04-30T12:53:27.086Z,395
2017-04-30T12:54:27.704Z,395
2017-04-30T12:55:27.461Z,355
2017-04-30T12:56:27.499Z,320
2017-04-30T12:57:27.847Z,350
2017-04-30T12:58:27.559Z,395
2017-04-30T12:59:27.859Z,390
2017-04-30T13:00:27.937Z,400
2017-04-30T13:01:27.969Z,430
2017-04-30T13:02:27.431Z,365
2017-04-30T13:03:28.047Z,290
2017-04-30T13:04:28.328Z,350
2017-04-30T13:05:27.797Z,600
2017-04-30T13:06:27.540Z,690
2017-04-30T13:07:27.870Z,510
2017-04-30T13:08:27.908Z,430
2017-04-30T13:09:28.196Z,425
2017-04-30T13:10:28.287Z,390
2017-04-30T13:11:27.995Z,390
2017-04-30T13:12:28.038Z,395
2017-04-30T13:13:28.379Z,350
2017-04-30T13:14:28.692Z,335
2017-04-30T13:15:28.449Z,355
2017-04-30T13:16:27.877Z,355
2017-04-30T13:17:28.213Z,375
2017-04-30T13:18:28.569Z,300
2017-04-30T13:19:28.840Z,200
2017-04-30T13:20:28.622Z,165
2017-04-30T13:21:28.657Z,160
2017-04-30T13:22:28.066Z,155
2017-04-30T13:23:28.411Z,150
2017-04-30T13:24:29.014Z,150
2017-04-30T13:25:28.481Z,150
2017-04-30T13:26:27.895Z,145
2017-04-30T13:27:28.865Z,145
2017-04-30T13:28:28.927Z,145
2017-04-30T13:29:28.252Z,145
2017-04-30T13:30:28.652Z,145
2017-04-30T13:31:28.693Z,145
2017-04-30T13:32:29.030Z,145
2017-04-30T13:33:29.079Z,140
2017-04-30T13:34:29.027Z,140
2017-04-30T13:35:28.827Z,140
2017-04-30T13:36:29.173Z,140
2017-04-30T13:37:28.895Z,135
2017-04-30T13:38:29.241Z,135
2017-04-30T13:39:29.530Z,135
2017-04-30T13:40:29.295Z,135
2017-04-30T13:41:29.040Z,135
2017-04-30T13:42:29.384Z,135
2017-04-30T13:43:29.405Z,140
2017-04-30T13:44:29.070Z,135
2017-04-30T13:45:29.163Z,130
2017-04-30T13:46:28.891Z,130
2017-04-30T13:47:29.228Z,130
2017-04-30T13:48:29.577Z,135
2017-04-30T13:49:29.887Z,135
2017-04-30T13:50:29.650Z,135
2017-04-30T13:51:29.374Z,130
2017-04-30T13:52:29.401Z,135
2017-04-30T13:53:29.749Z,130
2017-04-30T13:54:29.737Z,125
2017-04-30T13:55:29.498Z,130
2017-04-30T13:56:29.532Z,125
2017-04-30T13:57:29.578Z,125
2017-04-30T13:58:29.926Z,120
2017-04-30T13:59:29.897Z,130
2017-04-30T14:00:29.994Z,125
2017-04-30T14:01:30.023Z,125
2017-04-30T14:02:30.056Z,125
2017-04-30T14:03:30.092Z,120
2017-04-30T14:04:30.054Z,120
2017-04-30T14:05:30.163Z,120
2017-04-30T14:06:30.186Z,120
2017-04-30T14:07:29.916Z,120
2017-04-30T14:08:30.253Z,115
2017-04-30T14:09:30.549Z,115
2017-04-30T14:10:30.022Z,115
2017-04-30T14:11:29.426Z,115
2017-04-30T14:12:30.391Z,115
2017-04-30T14:13:30.424Z,115
2017-04-30T14:14:30.096Z,115
2017-04-30T14:15:29.862Z,120
2017-04-30T14:16:30.219Z,115
2017-04-30T14:17:30.250Z,115
2017-04-30T14:18:30.592Z,115
2017-04-30T14:19:30.880Z,110
2017-04-30T14:20:30.661Z,115
2017-04-30T14:21:30.080Z,110